Startpagina
METAR-TAF:

METAR-TAF

Vliegvelden :

Salinas, Ecuador

breedte: 02-12-18S, lengte: 080-59-20W, hoogte: 5 m

Actueel weer

Dit bericht is 54 minuten geleden gemaakt, om 17:00 UTC
Wind 10 kt uit het westzuidwesten
Temperatuur 28°C
Vochtigheid 74%
Druk 1015 hPa
Zicht 10 km of meer
geen wolken onder 1500 m en geen cumulonimbus

METAR: SESA 261700Z 24010KT CAVOK 28/23 Q1015 RMK A2997

Tijdstip: 12:54 (17:54 UTC)


TAF: ontbreekt

Waarnemingen en weersverwachtingen van meer dan 4000 vliegvelden (METAR en TAF).

De beschikbare stations zijn de gele en rode punten op de kaart.

Ga met uw muis naar het station om de naam te zien.

Klik dan om waarnemingen en weersverwachtingen te zien.

kaart wijzigen: klik op de groene knoppen met een zwart kruis om in te zoomen, op de groene knop met een streepje om uit te zoomen of op de groene pijlen voor aangrenzende kaarten.


METAR-TAF: